Station: Pallamana  

  Atmospheric Gas Attenuation - ITU Rec 676-11   ----------------- dB/100km -----------------
Date Time Temp RH % AH g/m3 Dew Point Wind Direction Speed kph Gust kph Barometer mB Rainfall Since 9am 24GHz 47GHz 76GHz 122GHz 134GHz 241GHz
08/05 12:10 16.4 82 11.44 13.3 28 39 1030.2 0 25.5 30.5 51.0 134.0 135.0 466.6
08/05 12:00 16 85 11.58 13.5 24 32 1030.3 0 25.8 30.9 51.8 136.4 137.7 476.1
08/05 11:50 15.3 94 12.28 14.3 22 26 1030.4 0 27.3 32.4 55.5 146.0 149.3 516.3
08/05 11:40 15.2 91 11.81 13.7 30 32 1030.4 0 26.3 31.6 53.4 140.5 142.5 492.8
08/05 11:30 15 95 12.18 14.2 22 30 1030.6 0 27.2 32.3 55.2 145.4 148.4 513.2
08/05 11:20 14.7 94 11.83 13.7 24 28 1030.7 0 26.4 31.8 53.9 141.7 143.8 497.1
08/05 11:10 14.7 91 11.46 13.2 30 35 1030.8 0 25.6 31.2 52.2 137.3 138.4 478.3
08/05 11:00 15.1 90 11.61 13.5 20 30 1031.1 0 25.9 31.3 52.6 138.4 139.9 483.5
08/05 10:50 14.7 94 11.83 13.7 19 20 1031.1 0 26.4 31.8 53.9 141.8 143.9 497.3
08/05 10:40 14.5 92 11.44 13.2 22 26 1031 0 25.6 31.2 52.3 137.5 138.5 478.5
08/05 10:30 14.4 93 11.5 13.3 20 28 1031.2 0 25.7 31.4 52.6 138.4 139.6 482.3
08/05 10:20 14.3 93 11.43 13.2 19 22 1031.1 0 25.6 31.3 52.4 137.7 138.7 479.3
08/05 10:10 14.4 90 11.13 12.8 22 26 1031 0 24.9 30.7 51.0 134.0 134.2 463.4
08/05 10:00 14.5 88 10.95 12.5 26 35 1030.9 0 24.5 30.3 50.1 131.7 131.4 453.7
08/05 09:50 14.6 87 10.89 12.5 24 32 1031.1 0 24.4 30.2 49.8 130.8 130.4 450.2
08/05 09:40 13.9 93 11.15 12.8 20 26 1031 0 25.0 30.9 51.4 135.1 135.3 467.5
08/05 09:30 13.8 90 10.72 12.2 24 33 1030.9 0 24.1 30.2 49.5 130.2 129.3 446.3
08/05 09:20 13.6 91 10.71 12.2 19 22 1031 0 24.1 30.2 49.6 130.4 129.5 447.0
08/05 09:10 13.5 92 10.76 12.2 17 20 1031 0 24.2 30.3 49.9 131.2 130.4 450.1
08/05 09:00 13.1 94 10.73 12.2 19 26 1030.9 0 24.2 30.4 50.0 131.5 130.6 450.8
08/05 08:50 13.1 93 10.61 12 20 24 1030.9 0 23.9 30.2 49.5 130.1 128.9 444.8
08/05 08:40 13.3 90 10.4 11.7 22 24 1030.8 0 23.4 29.8 48.5 127.3 125.5 433.0
08/05 08:30 13.9 83 9.95 11.1 20 28 1030.8 0 22.4 28.8 46.1 121.1 118.2 407.5
08/05 08:20 14 81 9.77 10.8 19 22 1030.6 0 22.1 28.4 45.3 118.9 115.5 398.1
08/05 08:10 13.9 81 9.71 10.7 20 24 1030.5 0 21.9 28.4 45.1 118.4 114.8 395.7
08/05 08:00 13.9 80 9.59 10.5 22 30 1030.4 0 21.7 28.2 44.6 117.0 113.1 389.8
08/05 07:50 14.1 78 9.47 10.3 20 26 1030.3 0 21.4 27.9 44.0 115.4 111.2 383.0
08/05 07:40 14.2 77 9.4 10.2 26 28 1030.1 0 21.3 27.7 43.6 114.4 110.1 379.1
08/05 07:30 14 78 9.41 10.2 19 24 1030.1 0 21.3 27.8 43.8 114.8 110.5 380.6
08/05 07:20 13.9 79 9.47 10.3 19 20 1030 0 21.4 27.9 44.1 115.6 111.4 383.9
08/05 07:10 13.7 80 9.47 10.3 17 19 1029.9 0 21.4 28.0 44.2 115.9 111.7 384.9
08/05 07:00 13.6 81 9.53 10.4 17 20 1029.8 0 21.6 28.1 44.5 116.7 112.7 388.2
08/05 06:50 13.6 81 9.53 10.4 19 20 1029.6 0 21.6 28.1 44.5 116.7 112.7 388.2
08/05 06:40 13.6 81 9.53 10.4 20 22 1029.4 0 21.6 28.1 44.5 116.7 112.6 388.1
08/05 06:30 13.5 81 9.47 10.3 20 26 1029.3 0 21.4 28.0 44.3 116.2 112.0 385.7
08/05 06:20 13.6 80 9.42 10.2 20 22 1029.3 0 21.3 27.9 44.0 115.4 111.1 382.8
08/05 06:10 13.6 81 9.53 10.4 22 28 1029.3 0 21.6 28.1 44.5 116.7 112.6 388.1
08/05 06:00 13.6 80 9.42 10.2 17 22 1029.3 0 21.3 27.9 44.0 115.4 111.1 382.8
08/05 05:50 13.5 80 9.36 10.1 15 17 1029.3 0 21.2 27.9 43.8 114.9 110.4 380.4
08/05 05:40 13.4 80 9.3 10 17 19 1029.4 0 21.1 27.8 43.6 114.4 109.8 378.0
08/05 05:30 13.5 80 9.36 10.1 15 20 1029.3 0 21.2 27.9 43.8 114.9 110.4 380.4
08/05 05:20 13.4 80 9.3 10 17 17 1029.4 0 21.1 27.8 43.6 114.4 109.8 378.0
08/05 05:10 13.4 79 9.18 9.8 13 17 1029.5 0 20.8 27.6 43.1 113.1 108.1 372.3
08/05 05:00 13.3 80 9.24 9.9 17 22 1029.4 0 21.0 27.7 43.4 113.9 109.1 375.6
08/05 04:50 13.3 81 9.36 10.1 20 22 1029.4 0 21.2 27.9 43.9 115.2 110.7 381.4
08/05 04:40 13.4 79 9.18 9.8 20 26 1029.4 0 20.8 27.6 43.1 113.1 108.1 372.2
08/05 04:30 13.5 78 9.12 9.7 19 26 1029.4 0 20.7 27.5 42.8 112.3 107.1 368.9
08/05 04:20 13.5 78 9.12 9.7 17 19 1029.4 0 20.7 27.5 42.8 112.3 107.1 368.9
08/05 04:10 13.6 78 9.18 9.8 20 24 1029.3 0 20.8 27.5 43.0 112.8 107.8 371.3
08/05 04:00 13.5 78 9.12 9.7 19 24 1029.3 0 20.7 27.5 42.8 112.2 107.1 368.9
08/05 03:50 13.4 79 9.18 9.8 15 19 1029.4 0 20.8 27.6 43.1 113.1 108.1 372.2
08/05 03:40 13.4 79 9.18 9.8 15 19 1029.4 0 20.8 27.6 43.1 113.1 108.1 372.2
08/05 03:30 13.4 80 9.3 10 17 24 1029.5 0 21.1 27.8 43.6 114.4 109.8 378.0
08/05 03:20 13.4 80 9.3 10 17 19 1029.5 0 21.1 27.8 43.6 114.4 109.8 378.0
08/05 03:10 13.3 80 9.24 9.9 17 20 1029.5 0 21.0 27.7 43.4 113.9 109.1 375.6
08/05 03:00 13.3 80 9.24 9.9 19 24 1029.4 0 21.0 27.7 43.4 113.9 109.1 375.6
08/05 02:50 13.2 81 9.3 10 20 24 1029.6 0 21.1 27.9 43.7 114.7 110.1 379.0
08/05 02:40 13.1 82 9.36 10.1 17 19 1029.7 0 21.2 28.0 44.1 115.6 111.0 382.5
08/05 02:30 12.8 83 9.3 10 13 17 1029.7 0 21.1 28.0 44.0 115.3 110.6 381.0
08/05 02:20 12.6 85 9.4 10.1 11 11 1029.8 0 21.3 28.2 44.5 116.8 112.3 386.9
08/05 02:10 12.6 85 9.4 10.1 13 15 1029.7 0 21.3 28.2 44.5 116.8 112.3 386.9
08/05 02:00 12.4 86 9.4 10.1 13 17 1029.6 0 21.4 28.3 44.6 117.0 112.6 387.8
08/05 01:50 12.2 87 9.39 10.1 13 15 1029.8 0 21.3 28.3 44.7 117.3 112.8 388.4
08/05 01:40 12.5 86 9.46 10.2 19 20 1030 0 21.5 28.4 44.8 117.6 113.3 390.4
08/05 01:30 13.1 79 9.02 9.5 24 33 1030 0 20.5 27.4 42.6 111.8 106.4 366.2
08/05 01:20 13.4 76 8.84 9.3 17 19 1029.9 0 20.1 27.0 41.7 109.4 103.5 356.2
08/05 01:10 13.3 76 8.78 9.2 20 26 1030 0 20.0 27.0 41.5 108.9 102.8 353.8
08/05 01:00 13.3 75 8.67 9 19 26 1029.9 0 19.7 26.8 41.1 107.6 101.4 348.6
08/05 00:50 13.5 72 8.42 8.6 20 24 1029.8 0 19.2 26.3 40.0 104.6 97.7 335.9
08/05 00:40 13.4 72 8.37 8.5 20 22 1029.9 0 19.1 26.3 39.8 104.2 97.2 334.1
08/05 00:30 13.5 71 8.31 8.4 20 28 1030 0 19.0 26.1 39.5 103.5 96.3 330.9
08/05 00:20 13.4 71 8.25 8.3 22 24 1030 0 18.8 26.1 39.3 103.0 95.6 328.5
08/05 00:10 13.1 72 8.22 8.2 15 20 1030.1 0 18.8 26.1 39.4 103.0 95.6 328.4
08/05 00:00 13.1 71 8.1 8 13 17 1030.1 0 18.5 25.9 38.9 101.7 94.0 322.8
07/05 23:50 12.9 72 8.12 8 13 13 1030.1 0 18.6 26.0 39.1 102.2 94.5 324.6
07/05 23:40 12.9 71 8 7.8 13 15 1030.2 0 18.3 25.8 38.6 100.9 92.9 319.0
07/05 23:30 12.8 71 7.95 7.7 11 17 1030.2 0 18.2 25.8 38.4 100.5 92.4 317.1
07/05 23:20 12.8 70 7.84 7.5 13 17 1030.2 0 18.0 25.6 38.0 99.4 90.9 312.0
07/05 23:10 12.7 70 7.79 7.4 11 13 1030.3 0 17.9 25.5 37.8 99.0 90.4 310.1
07/05 23:00 12.7 70 7.79 7.4 13 17 1030.2 0 17.9 25.5 37.8 98.9 90.4 310.1
07/05 22:50 12.7 70 7.79 7.4 19 20 1030.2 0 17.9 25.5 37.8 98.9 90.4 310.1
07/05 22:40 12.4 71 7.76 7.3 17 19 1030.1 0 17.8 25.6 37.9 99.0 90.3 309.9
07/05 22:30 12.1 73 7.83 7.4 19 24 1030.2 0 18.0 25.8 38.3 100.1 91.6 314.3
07/05 22:20 12.2 73 7.88 7.5 20 24 1030.2 0 18.1 25.8 38.4 100.5 92.2 316.3
07/05 22:10 12.7 73 8.13 8 22 24 1030.2 0 18.6 26.1 39.2 102.6 94.9 325.9
07/05 22:00 12.7 74 8.24 8.2 15 19 1030.2 0 18.9 26.3 39.7 103.8 96.4 331.0
07/05 21:50 12.7 74 8.24 8.2 13 13 1030.3 0 18.9 26.3 39.7 103.8 96.4 331.0
07/05 21:40 12.7 74 8.24 8.2 13 15 1030.5 0 18.9 26.3 39.7 103.8 96.4 331.1
07/05 21:30 12.6 75 8.3 8.3 15 20 1030.6 0 19.0 26.4 40.0 104.6 97.3 334.4
07/05 21:20 12.6 76 8.41 8.5 17 19 1030.7 0 19.2 26.6 40.4 105.8 98.8 339.6
07/05 21:10 12.7 76 8.46 8.6 20 24 1030.6 0 19.3 26.6 40.6 106.2 99.4 341.5
07/05 21:00 12.7 75 8.35 8.4 26 32 1030.6 0 19.1 26.5 40.1 105.0 97.9 336.3
07/05 20:50 12.7 74 8.24 8.2 22 26 1030.6 0 18.9 26.3 39.7 103.8 96.4 331.1
07/05 20:40 12.7 71 7.9 7.6 26 30 1030.5 0 18.1 25.7 38.3 100.2 91.9 315.3
07/05 20:30 12.5 72 7.92 7.6 15 22 1030.5 0 18.2 25.8 38.5 100.6 92.4 317.0
07/05 20:20 12.2 72 7.77 7.3 13 15 1030.5 0 17.9 25.7 38.0 99.4 90.7 311.2
07/05 20:10 11.6 75 7.8 7.3 13 13 1030.5 0 18.0 25.9 38.4 100.5 91.8 315.0
07/05 20:00 11.4 77 7.9 7.5 11 15 1030.5 0 18.2 26.1 38.9 101.8 93.4 320.5
07/05 19:50 11.2 79 8.01 7.7 11 11 1030.5 0 18.4 26.3 39.5 103.3 95.1 326.5
07/05 19:40 12.1 77 8.26 8.2 11 13 1030.6 0 18.9 26.5 40.1 104.8 97.4 334.6

Last Refresh: 08-May-2026 12:10:12

Bureau of Meteorology